Time;durP1;ratioP1;P1;durP2;ratioP2;P2;SDS_P1;SDS_P2;PMS_P1;PMS_P2;Temp;Humidity;BMP_temperature;BMP_pressure;BME280_temperature;BME280_humidity;BME280_pressure;Samples;Min_cycle;Max_cycle;Signal;HPM_P1;HPM_P2
2022/07/25 00:00:12;;;;;;;31.10;28.92;;;18.50;1.00;;;;;;4936440;29;20639;-88
2022/07/25 00:02:40;;;;;;;268.45;245.23;;;18.40;1.00;;;;;;4936280;29;20198;-87
2022/07/25 00:05:08;;;;;;;375.88;340.63;;;18.40;1.00;;;;;;4936917;29;20231;-87
2022/07/25 00:07:35;;;;;;;236.18;208.57;;;18.40;1.00;;;;;;4936549;29;20294;-88
2022/07/25 00:10:02;;;;;;;93.80;82.45;;;18.30;1.00;;;;;;4936554;29;20201;-87
2022/07/25 00:12:31;;;;;;;242.02;216.40;;;18.30;1.00;;;;;;4936723;29;20204;-88
2022/07/25 00:14:58;;;;;;;269.85;243.48;;;18.20;1.00;;;;;;4936248;29;20196;-87
2022/07/25 00:17:25;;;;;;;221.38;197.15;;;18.20;1.00;;;;;;4936612;29;20197;-87
2022/07/25 00:19:52;;;;;;;16.55;14.45;;;18.20;1.00;;;;;;4936185;29;20619;-88
2022/07/25 00:22:19;;;;;;;104.63;94.78;;;18.20;1.00;;;;;;4936750;29;20205;-87
2022/07/25 00:24:46;;;;;;;138.00;124.88;;;18.20;1.00;;;;;;4936349;29;20197;-88
2022/07/25 00:27:13;;;;;;;93.05;85.53;;;18.20;1.00;;;;;;4923265;29;20204;-88
2022/07/25 00:29:42;;;;;;;129.45;117.60;;;18.20;1.00;;;;;;4935542;29;20231;-87
2022/07/25 00:32:09;;;;;;;143.48;128.88;;;18.10;1.00;;;;;;4935926;29;20291;-87
2022/07/25 00:34:36;;;;;;;402.63;364.15;;;18.10;1.00;;;;;;4936274;29;20276;-88
2022/07/25 00:37:03;;;;;;;12.15;11.07;;;18.20;1.00;;;;;;4936160;29;20203;-87
2022/07/25 00:39:30;;;;;;;3.83;3.00;;;18.10;1.00;;;;;;4936162;29;20224;-88
2022/07/25 00:41:57;;;;;;;136.77;126.72;;;18.10;1.00;;;;;;4935693;29;20292;-89
2022/07/25 00:44:25;;;;;;;61.50;56.13;;;18.00;1.00;;;;;;4935904;29;20650;-88
2022/07/25 00:46:54;;;;;;;103.03;95.93;;;18.00;1.00;;;;;;4935988;29;20196;-87
2022/07/25 00:49:22;;;;;;;193.73;178.88;;;18.00;1.00;;;;;;4935907;29;20201;-87
2022/07/25 00:51:49;;;;;;;44.50;41.90;;;18.10;1.00;;;;;;4936078;29;20215;-87
2022/07/25 00:54:16;;;;;;;6.55;6.05;;;18.10;1.00;;;;;;4935454;29;20201;-87
2022/07/25 00:56:44;;;;;;;114.57;106.57;;;18.10;1.00;;;;;;4936097;29;20208;-87
2022/07/25 00:59:11;;;;;;;12.52;11.75;;;18.10;1.00;;;;;;4935414;29;20235;-88
2022/07/25 01:01:39;;;;;;;4.13;3.63;;;18.10;1.00;;;;;;4935806;29;20209;-87
2022/07/25 01:04:18;;;;;;;4.35;3.95;;;18.10;1.00;;;;;;4955655;28;20192;-90
2022/07/25 01:06:59;;;;;;;4.45;2.13;;;18.10;1.00;;;;;;4960684;28;20200;-90
2022/07/25 01:12:59;;;;;;;9.80;9.07;;;18.10;1.00;;;;;;4954799;28;20264;-90
2022/07/25 01:18:38;;;;;;;2.97;2.13;;;18.10;1.00;;;;;;4936810;28;20195;-89
2022/07/25 01:21:16;;;;;;;3.70;2.65;;;18.10;1.00;;;;;;4960094;28;20216;-89
2022/07/25 01:24:02;;;;;;;5.43;5.03;;;18.10;1.00;;;;;;4960502;28;20180;-90
2022/07/25 01:26:30;;;;;;;4.90;3.20;;;18.10;1.00;;;;;;4938351;28;20209;-85
2022/07/25 01:28:58;;;;;;;3.97;3.45;;;18.00;1.00;;;;;;4934679;29;20196;-86
2022/07/25 01:31:25;;;;;;;2.47;2.05;;;18.00;1.00;;;;;;4934801;29;20268;-86
2022/07/25 01:33:52;;;;;;;3.30;3.00;;;18.00;1.00;;;;;;4935718;29;20252;-87
2022/07/25 01:36:21;;;;;;;4.22;3.88;;;18.00;1.00;;;;;;4934888;29;20197;-86
2022/07/25 01:38:48;;;;;;;6.72;6.10;;;17.90;1.00;;;;;;4935290;29;20215;-86
2022/07/25 01:41:15;;;;;;;4.32;4.03;;;17.90;1.00;;;;;;4934169;29;20685;-86
2022/07/25 01:43:42;;;;;;;15.70;14.75;;;17.80;1.00;;;;;;4935155;29;20201;-86
2022/07/25 01:46:09;;;;;;;37.08;34.83;;;17.80;1.00;;;;;;4935039;29;20207;-87
2022/07/25 01:48:36;;;;;;;28.30;26.65;;;17.80;1.00;;;;;;4934785;29;20746;-86
2022/07/25 01:51:03;;;;;;;13.93;12.82;;;17.70;1.00;;;;;;4934834;29;20200;-85
2022/07/25 01:53:31;;;;;;;3.53;3.22;;;17.70;1.00;;;;;;4935135;29;20205;-86
2022/07/25 01:55:59;;;;;;;8.27;7.72;;;17.70;1.00;;;;;;4935065;29;20197;-86
2022/07/25 01:58:26;;;;;;;14.18;12.68;;;17.70;1.00;;;;;;4934345;29;20232;-86
2022/07/25 02:00:53;;;;;;;59.05;55.03;;;17.70;1.00;;;;;;4935203;29;20267;-86
2022/07/25 02:03:32;;;;;;;246.37;220.83;;;17.60;1.00;;;;;;4935044;29;20201;-86
2022/07/25 02:06:00;;;;;;;240.53;216.93;;;17.60;1.00;;;;;;4934659;29;20196;-87
2022/07/25 02:08:28;;;;;;;223.27;202.07;;;17.60;1.00;;;;;;4934684;29;20208;-85
2022/07/25 02:10:57;;;;;;;59.22;55.40;;;17.50;1.00;;;;;;4935176;29;20199;-86
2022/07/25 02:13:25;;;;;;;18.35;16.90;;;17.50;1.00;;;;;;4934674;29;20211;-86
2022/07/25 02:15:52;;;;;;;23.27;21.73;;;17.50;1.00;;;;;;4935574;29;20292;-87
2022/07/25 02:18:19;;;;;;;60.70;56.95;;;17.50;1.00;;;;;;4934738;29;20199;-86
2022/07/25 02:20:47;;;;;;;29.25;26.95;;;17.50;1.00;;;;;;4934861;29;20233;-85
2022/07/25 02:23:14;;;;;;;74.68;70.40;;;17.50;1.00;;;;;;4934817;29;20199;-86
2022/07/25 02:25:41;;;;;;;55.58;52.35;;;17.40;1.00;;;;;;4934383;29;20601;-86
2022/07/25 02:28:09;;;;;;;65.95;61.30;;;17.40;1.00;;;;;;4934618;29;20535;-85
2022/07/25 02:30:36;;;;;;;45.20;41.60;;;17.40;1.00;;;;;;4934429;29;20208;-86
2022/07/25 02:33:03;;;;;;;225.10;201.07;;;17.30;1.00;;;;;;4934892;29;20557;-86
2022/07/25 02:35:30;;;;;;;290.60;262.37;;;17.30;1.00;;;;;;4934508;29;20201;-85
2022/07/25 02:37:58;;;;;;;102.37;94.13;;;17.30;1.00;;;;;;4934658;29;20201;-86
2022/07/25 02:40:25;;;;;;;163.47;147.47;;;17.30;1.00;;;;;;4934868;29;20278;-85
2022/07/25 02:42:52;;;;;;;271.73;243.97;;;17.20;1.00;;;;;;4934413;29;20661;-86
2022/07/25 02:45:20;;;;;;;287.97;262.87;;;17.20;1.00;;;;;;4934530;29;20203;-85
2022/07/25 02:47:47;;;;;;;277.40;251.10;;;17.20;1.00;;;;;;4934504;29;20217;-87
2022/07/25 02:50:15;;;;;;;240.73;217.90;;;17.20;1.00;;;;;;4934625;29;20210;-86
2022/07/25 02:52:42;;;;;;;162.10;150.85;;;17.20;1.00;;;;;;4934955;29;20570;-86
2022/07/25 02:55:10;;;;;;;127.55;119.35;;;17.20;1.00;;;;;;4937749;29;20204;-86
2022/07/25 02:57:37;;;;;;;187.48;173.38;;;17.20;1.00;;;;;;4937525;29;20198;-86
2022/07/25 03:00:05;;;;;;;;;;;17.10;1.00;;;;;;4938301;29;20224;-86
2022/07/25 03:02:33;;;;;;;98.60;91.70;;;17.10;1.00;;;;;;4938194;29;19923;-85
2022/07/25 03:05:00;;;;;;;;;;;17.10;1.00;;;;;;4938342;29;19957;-86
2022/07/25 03:07:27;;;;;;;;;;;17.10;1.00;;;;;;4938170;29;20004;-86
2022/07/25 03:09:53;;;;;;;;;;;17.10;1.00;;;;;;4938041;29;20406;-87
2022/07/25 03:12:20;;;;;;;;;;;17.10;1.00;;;;;;4938495;29;19922;-88
2022/07/25 03:14:47;;;;;;;;;;;17.10;1.00;;;;;;4942262;29;19927;-87
2022/07/25 03:17:14;;;;;;;;;;;17.10;1.00;;;;;;4943254;29;20368;-86
2022/07/25 03:19:44;;;;;;;;;;;17.10;1.00;;;;;;4939437;29;19923;-87
2022/07/25 03:22:11;;;;;;;;;;;17.10;1.00;;;;;;4942429;29;19923;-87
2022/07/25 03:24:38;;;;;;;;;;;17.10;1.00;;;;;;4940892;29;20288;-86
2022/07/25 03:27:08;;;;;;;;;;;17.10;1.00;;;;;;4941149;29;19929;-89
2022/07/25 03:29:35;;;;;;;;;;;17.10;1.00;;;;;;4942524;29;19929;-90
2022/07/25 03:32:02;;;;;;;;;;;17.20;1.00;;;;;;4940671;29;19947;-87
2022/07/25 03:34:28;;;;;;;;;;;17.20;1.00;;;;;;4939968;29;20388;-87
2022/07/25 03:36:57;;;;;;;;;;;17.20;1.00;;;;;;4942882;29;19923;-87
2022/07/25 03:39:29;;;;;;;;;;;17.30;1.00;;;;;;4943226;29;19923;-89
2022/07/25 03:41:56;;;;;;;;;;;17.40;1.00;;;;;;4944862;29;19956;-87
2022/07/25 03:44:24;;;;;;;;;;;17.40;1.00;;;;;;4942245;29;19923;-88
2022/07/25 03:46:51;;;;;;;;;;;17.50;1.00;;;;;;4942881;29;20428;-87
2022/07/25 03:49:19;;;;;;;;;;;17.60;1.00;;;;;;4940403;29;19923;-86
2022/07/25 03:51:45;;;;;;;;;;;17.60;1.00;;;;;;4943230;29;19923;-85
2022/07/25 03:54:14;;;;;;;;;;;17.70;1.00;;;;;;4938055;29;20436;-88
2022/07/25 03:56:41;;;;;;;;;;;17.80;1.00;;;;;;4939515;29;20014;-88
2022/07/25 03:59:09;;;;;;;;;;;17.90;1.00;;;;;;4939984;29;19930;-86
2022/07/25 04:01:35;;;;;;;;;;;18.10;1.00;;;;;;4944468;29;20016;-87
2022/07/25 04:04:05;;;;;;;;;;;18.50;41.60;;;;;;4938067;29;19999;-94
2022/07/25 04:06:32;;;;;;;432.10;391.05;;;19.30;99.90;;;;;;4937394;29;20086;-90
2022/07/25 04:09:13;;;;;;;562.10;509.00;;;20.30;91.80;;;;;;4958137;28;20209;-90
2022/07/25 04:14:59;;;;;;;635.00;571.15;;;22.40;1.00;;;;;;4888339;29;20285;-90
2022/07/25 04:17:41;;;;;;;;;;;;;;;;;;;;;
2022/07/25 04:23:15;;;;;;;599.42;549.40;;;23.80;99.90;;;;;;4900664;29;20287;-91
2022/07/25 04:25:42;;;;;;;186.30;173.25;;;23.80;99.90;;;;;;4939419;29;20197;-88
2022/07/25 04:28:13;;;;;;;661.58;609.83;;;24.00;99.90;;;;;;4947842;29;20218;-90
2022/07/25 04:30:44;;;;;;;744.58;677.67;;;24.60;99.90;;;;;;4958116;29;20185;-90
2022/07/25 04:33:15;;;;;;;779.78;712.95;;;25.30;99.90;;;;;;4957677;29;20208;-89
2022/07/25 04:35:45;;;;;;;810.55;741.47;;;25.90;99.90;;;;;;4954127;29;20217;-92
2022/07/25 04:38:15;;;;;;;833.40;752.63;;;26.60;99.90;;;;;;4954480;29;20122;-91
2022/07/25 04:41:02;;;;;;;809.22;742.60;;;27.40;99.90;;;;;;4956849;29;20224;-91
2022/07/25 04:43:30;;;;;;;446.30;413.27;;;28.30;99.90;;;;;;4960331;29;20256;-94
2022/07/25 04:46:04;;;;;;;283.13;263.05;;;28.40;99.90;;;;;;4960326;28;20201;-89
2022/07/25 04:48:31;;;;;;;233.30;217.02;;;28.30;99.90;;;;;;4959807;29;20208;-91
2022/07/25 04:51:04;;;;;;;179.45;167.30;;;28.00;99.90;;;;;;4960031;28;20204;-93
2022/07/25 04:57:04;;;;;;;;;;;;;;;;;;;;;
2022/07/25 04:59:36;;;;;;;81.63;76.28;;;28.70;99.90;;;;;;4961296;28;20181;-91
2022/07/25 05:02:10;;;;;;;89.05;82.88;;;29.20;99.90;;;;;;4960065;28;20199;-89
2022/07/25 05:04:44;;;;;;;;;;;29.70;99.90;;;;;;4961381;28;20042;-91
2022/07/25 05:07:15;;;;;;;;;;;30.10;99.90;;;;;;4961454;28;19961;-93
2022/07/25 05:09:56;;;;;;;;;;;29.90;99.90;;;;;;4960561;28;19942;-91
2022/07/25 05:12:26;;;;;;;;;;;29.80;99.90;;;;;;4961440;28;19907;-92
2022/07/25 05:15:07;;;;;;;;;;;30.00;99.90;;;;;;4961009;28;19957;-89
2022/07/25 05:17:57;;;;;;;60.35;56.33;;;30.20;99.90;;;;;;4960575;28;19976;-91
2022/07/25 05:20:31;;;;;;;48.97;45.47;;;30.50;99.90;;;;;;4960536;28;20254;-90
2022/07/25 05:22:57;;;;;;;;;;;31.40;99.90;;;;;;4948193;28;20083;-87
2022/07/25 05:25:31;;;;;;;;;;;32.20;99.90;;;;;;4929010;28;19927;-88
2022/07/25 05:27:58;;;;;;;50.73;46.90;;;32.80;99.90;;;;;;4935326;29;20624;-91
2022/07/25 05:30:25;;;;;;;;;;;33.30;99.90;;;;;;4936015;29;19929;-93
2022/07/25 05:32:58;;;;;;;;;;;33.80;99.90;;;;;;4941675;29;19923;-91
2022/07/25 05:35:25;;;;;;;3.70;1.80;;;34.10;99.90;;;;;;4942691;29;20376;-92
2022/07/25 05:37:56;;;;;;;3.85;3.55;;;34.40;99.90;;;;;;4937109;29;20200;-93
2022/07/25 05:43:10;;;;;;;;;;;35.30;99.90;;;;;;4938501;29;20462;-87
2022/07/25 05:45:38;;;;;;;2.95;1.52;;;35.90;99.90;;;;;;4937893;29;20010;-92
2022/07/25 05:48:07;;;;;;;;;;;36.30;99.90;;;;;;4937482;29;20051;-91
2022/07/25 05:50:38;;;;;;;2.65;2.38;;;36.80;99.90;;;;;;4940973;29;20197;-94
2022/07/25 05:53:05;;;;;;;16.60;15.35;;;37.10;99.90;;;;;;4938087;29;20717;-87
2022/07/25 05:55:32;;;;;;;4.78;4.30;;;37.20;99.90;;;;;;4935674;29;20223;-91
2022/07/25 05:58:00;;;;;;;3.47;1.40;;;36.90;99.90;;;;;;4934334;29;20200;-90
2022/07/25 06:00:27;;;;;;;3.03;1.40;;;36.90;99.90;;;;;;4937864;29;20317;-88
2022/07/25 06:02:57;;;;;;;6.43;2.35;;;36.70;99.90;;;;;;4935380;29;20205;-91
2022/07/25 06:05:25;;;;;;;3.53;1.48;;;36.80;99.90;;;;;;4926094;29;20562;-88
2022/07/25 06:07:53;;;;;;;1.88;1.08;;;37.10;99.90;;;;;;4915990;29;20185;-90
2022/07/25 06:10:21;;;;;;;9.85;9.07;;;37.60;99.90;;;;;;4915558;29;20193;-89
2022/07/25 06:12:48;;;;;;;5.40;4.90;;;37.90;99.90;;;;;;4915289;29;20667;-88
2022/07/25 06:15:15;;;;;;;4.32;3.95;;;38.20;99.90;;;;;;4914639;29;20185;-89
2022/07/25 06:17:42;;;;;;;39.15;35.95;;;38.60;99.90;;;;;;4922017;29;20180;-88
2022/07/25 06:20:11;;;;;;;29.23;26.95;;;38.90;99.90;;;;;;4920790;29;20201;-87
2022/07/25 06:22:40;;;;;;;6.65;6.05;;;38.80;99.90;;;;;;4924694;29;20311;-91
2022/07/25 06:25:08;;;;;;;5.68;4.90;;;38.90;99.90;;;;;;4934531;29;20208;-89
2022/07/25 06:27:36;;;;;;;10.60;9.88;;;39.00;99.90;;;;;;4935037;29;20200;-86
2022/07/25 06:30:05;;;;;;;15.13;13.90;;;39.00;99.90;;;;;;4938220;29;20259;-93
2022/07/25 06:32:32;;;;;;;418.25;385.40;;;39.30;99.90;;;;;;4941511;29;20236;-89
2022/07/25 06:34:59;;;;;;;457.58;421.48;;;39.70;99.90;;;;;;4938152;29;20702;-88
2022/07/25 06:37:27;;;;;;;89.28;82.93;;;39.70;99.90;;;;;;4941406;29;20188;-88
2022/07/25 06:39:56;;;;;;;171.30;158.50;;;39.30;99.90;;;;;;4938379;29;20208;-92
2022/07/25 06:42:23;;;;;;;165.65;153.25;;;39.00;99.90;;;;;;4937989;29;20224;-90
2022/07/25 06:44:50;;;;;;;18.77;17.08;;;39.00;99.90;;;;;;4938151;29;20255;-86
2022/07/25 06:47:17;;;;;;;10.13;9.35;;;39.10;99.90;;;;;;4938028;29;20200;-88
2022/07/25 06:49:44;;;;;;;8.48;7.82;;;39.30;99.90;;;;;;4938489;29;20196;-91
2022/07/25 06:52:11;;;;;;;15.77;14.65;;;39.20;99.90;;;;;;4938022;29;20252;-87
2022/07/25 06:54:39;;;;;;;20.95;19.48;;;39.20;99.90;;;;;;4945957;29;20602;-86
2022/07/25 06:57:07;;;;;;;19.45;18.08;;;39.20;99.90;;;;;;4944532;29;20204;-87
2022/07/25 06:59:34;;;;;;;52.28;48.45;;;39.20;99.90;;;;;;4945565;29;20201;-88
2022/07/25 07:02:06;;;;;;;19.48;18.15;;;39.20;99.90;;;;;;4941763;29;20224;-89
2022/07/25 07:04:42;;;;;;;12.02;11.05;;;39.30;99.90;;;;;;4948465;29;20205;-92
2022/07/25 07:07:10;;;;;;;24.25;22.33;;;39.50;99.90;;;;;;4942835;29;20709;-90
2022/07/25 07:09:37;;;;;;;17.88;16.58;;;39.50;99.90;;;;;;4937375;29;20727;-92
2022/07/25 07:12:05;;;;;;;30.20;28.02;;;39.60;99.90;;;;;;4937599;29;20292;-90
2022/07/25 07:14:37;;;;;;;95.20;88.10;;;39.80;99.90;;;;;;4939081;29;20668;-88
2022/07/25 07:17:04;;;;;;;77.22;71.72;;;39.80;99.90;;;;;;4937971;29;20196;-88
2022/07/25 07:19:31;;;;;;;144.38;133.73;;;39.80;99.90;;;;;;4949478;29;20211;-87
2022/07/25 07:21:59;;;;;;;232.23;214.20;;;40.00;99.90;;;;;;4935832;29;20201;-92
2022/07/25 07:24:26;;;;;;;1097.03;999.90;;;40.30;99.90;;;;;;4936940;29;20209;-89
2022/07/25 07:26:54;;;;;;;1193.05;999.90;;;40.60;99.90;;;;;;4943185;29;20264;-90
2022/07/25 07:29:21;;;;;;;1182.53;999.90;;;40.70;99.90;;;;;;4937689;29;20196;-89
2022/07/25 07:31:50;;;;;;;1193.03;999.90;;;40.80;99.90;;;;;;4936252;29;20232;-88
2022/07/25 07:34:17;;;;;;;1190.80;999.90;;;40.70;99.90;;;;;;4936741;29;20573;-87
2022/07/25 07:36:44;;;;;;;1192.22;999.90;;;40.80;99.90;;;;;;4937603;29;20657;-91
2022/07/25 07:39:11;;;;;;;1188.72;999.90;;;40.70;99.90;;;;;;4937220;29;20200;-87
2022/07/25 07:41:39;;;;;;;1208.07;999.90;;;40.80;99.90;;;;;;4936252;29;20272;-87
2022/07/25 07:44:07;;;;;;;1201.80;999.90;;;40.90;99.90;;;;;;4936311;29;20681;-90
2022/07/25 07:46:34;;;;;;;1191.28;999.90;;;40.80;99.90;;;;;;4936697;29;20196;-88
2022/07/25 07:49:11;;;;;;;1204.35;999.90;;;40.70;99.90;;;;;;4937442;29;20200;-87
2022/07/25 07:52:01;;;;;;;1192.45;999.90;;;40.50;99.90;;;;;;4961003;29;20199;-94
2022/07/25 07:57:22;;;;;;;1195.22;999.90;;;40.90;99.90;;;;;;4949573;29;20342;-89
2022/07/25 07:59:49;;;;;;;1188.63;999.90;;;40.70;99.90;;;;;;4957730;29;20657;-86
2022/07/25 08:02:17;;;;;;;1193.15;999.90;;;40.70;99.90;;;;;;4941542;29;20220;-86
2022/07/25 08:04:55;;;;;;;1195.03;999.90;;;40.70;99.90;;;;;;4941681;29;20212;-87
2022/07/25 08:07:23;;;;;;;1193.53;999.90;;;40.70;99.90;;;;;;4938142;29;20243;-89
2022/07/25 08:09:50;;;;;;;1192.15;999.90;;;40.70;99.90;;;;;;4942742;29;20234;-90
2022/07/25 08:12:18;;;;;;;1112.22;999.90;;;40.90;99.90;;;;;;4940166;29;20206;-87
2022/07/25 08:14:45;;;;;;;1148.68;999.90;;;41.00;99.90;;;;;;4943663;29;20255;-86
2022/07/25 08:17:13;;;;;;;1143.18;999.90;;;40.90;99.90;;;;;;4942274;29;20646;-89
2022/07/25 08:19:41;;;;;;;1140.28;999.90;;;41.00;99.90;;;;;;4939563;29;20201;-88
2022/07/25 08:22:10;;;;;;;1110.35;999.90;;;41.00;99.90;;;;;;4934752;29;20270;-88
2022/07/25 08:24:45;;;;;;;1149.75;999.90;;;40.90;99.90;;;;;;4937939;29;20203;-94
2022/07/25 08:27:13;;;;;;;1195.63;999.90;;;41.00;99.90;;;;;;4935608;29;20219;-89
2022/07/25 08:29:40;;;;;;;885.85;818.75;;;41.10;99.90;;;;;;4928942;29;20209;-87
2022/07/25 08:32:08;;;;;;;939.40;869.10;;;41.30;99.90;;;;;;4930968;29;20243;-91
2022/07/25 08:34:35;;;;;;;1003.67;928.78;;;41.20;99.90;;;;;;4936892;29;20267;-88
2022/07/25 08:37:02;;;;;;;800.45;739.10;;;41.20;99.90;;;;;;4937240;29;20196;-88
2022/07/25 08:39:31;;;;;;;818.17;755.95;;;41.10;99.90;;;;;;4924502;29;20218;-87
2022/07/25 08:41:58;;;;;;;774.30;715.03;;;41.00;99.90;;;;;;4937406;29;20271;-87
2022/07/25 08:44:31;;;;;;;781.92;721.92;;;40.80;99.90;;;;;;4936101;29;20196;-87
2022/07/25 08:46:59;;;;;;;761.25;702.80;;;40.90;99.90;;;;;;4927790;29;20197;-89
2022/07/25 08:49:28;;;;;;;797.17;736.45;;;40.90;99.90;;;;;;4918074;29;20606;-87
2022/07/25 08:52:02;;;;;;;825.55;762.60;;;40.80;99.90;;;;;;4930865;29;20234;-88
2022/07/25 08:54:31;;;;;;;898.88;831.30;;;40.90;99.90;;;;;;4921125;29;20634;-88
2022/07/25 08:56:59;;;;;;;1156.68;999.90;;;41.00;99.90;;;;;;4921929;29;20201;-90
2022/07/25 08:59:26;;;;;;;848.90;784.70;;;40.80;99.90;;;;;;4927943;29;20196;-87
2022/07/25 09:02:26;;;;;;;649.05;597.85;;;40.90;99.90;;;;;;4951790;29;20224;-89
2022/07/25 09:05:09;;;;;;;595.13;547.45;;;40.70;99.90;;;;;;4955613;28;20192;-94
2022/07/25 09:07:39;;;;;;;433.15;398.88;;;40.50;99.90;;;;;;4941549;29;20201;-89
2022/07/25 09:10:16;;;;;;;409.65;377.17;;;40.30;99.90;;;;;;4935853;29;20201;-91
2022/07/25 09:12:59;;;;;;;360.23;331.70;;;40.20;99.90;;;;;;4935919;29;20220;-86
2022/07/25 09:15:31;;;;;;;347.70;320.48;;;40.10;99.90;;;;;;4949192;29;20253;-90
2022/07/25 09:18:00;;;;;;;513.92;471.30;;;40.00;99.90;;;;;;4939763;29;20216;-89
2022/07/25 09:20:38;;;;;;;258.73;238.63;;;40.10;99.90;;;;;;4926809;29;20193;-87
2022/07/25 09:23:06;;;;;;;235.35;217.15;;;40.00;99.90;;;;;;4939518;29;20263;-86
2022/07/25 09:25:35;;;;;;;339.77;313.08;;;39.90;99.90;;;;;;4934013;29;20211;-89
2022/07/25 09:28:16;;;;;;;380.63;350.80;;;39.70;99.90;;;;;;4934999;29;20203;-88
2022/07/25 09:30:54;;;;;;;437.08;402.83;;;39.50;99.90;;;;;;4935327;29;20204;-87
2022/07/25 09:33:29;;;;;;;484.90;446.50;;;39.20;99.90;;;;;;4901566;29;20190;-85
2022/07/25 09:35:56;;;;;;;743.95;687.20;;;38.90;99.90;;;;;;4897536;29;20219;-85
2022/07/25 09:38:25;;;;;;;1014.33;939.20;;;38.70;99.90;;;;;;4896993;29;20546;-86
2022/07/25 09:40:58;;;;;;;1164.55;999.90;;;38.40;99.90;;;;;;4898717;29;20191;-85
2022/07/25 09:43:35;;;;;;;;;;;38.00;99.90;;;;;;4897907;29;20071;-87
2022/07/25 09:46:02;;;;;;;1146.95;999.90;;;37.40;99.90;;;;;;4902896;29;20196;-90
2022/07/25 09:48:30;;;;;;;1148.85;999.90;;;36.80;99.90;;;;;;4892406;29;20647;-86
2022/07/25 09:50:58;;;;;;;1135.85;999.90;;;36.30;99.90;;;;;;4884949;29;20588;-90
2022/07/25 09:53:28;;;;;;;1117.00;999.90;;;35.90;99.90;;;;;;4888831;29;20206;-87
2022/07/25 09:55:56;;;;;;;;;;;35.70;99.90;;;;;;4880042;29;20094;-89
2022/07/25 09:58:23;;;;;;;;;;;35.40;99.90;;;;;;4884734;29;20415;-89
2022/07/25 10:00:52;;;;;;;1102.70;998.10;;;35.20;99.90;;;;;;4883215;29;20198;-86
2022/07/25 10:03:28;;;;;;;1102.95;999.90;;;35.20;99.90;;;;;;4882856;29;20219;-83
2022/07/25 10:06:08;;;;;;;1102.90;999.90;;;35.00;99.90;;;;;;4884937;29;20190;-87
2022/07/25 10:08:36;;;;;;;;;;;34.90;99.90;;;;;;4888624;29;20080;-86
2022/07/25 10:11:17;;;;;;;;;;;34.80;99.90;;;;;;4903460;29;19923;-90
2022/07/25 10:13:44;;;;;;;1077.13;981.30;;;34.70;99.90;;;;;;4898030;29;20208;-85
2022/07/25 10:16:16;;;;;;;1077.90;981.80;;;34.70;99.90;;;;;;4894420;29;20206;-90
2022/07/25 10:18:50;;;;;;;1080.35;984.95;;;34.70;99.90;;;;;;4913506;29;20674;-89
2022/07/25 10:21:18;;;;;;;1073.32;977.35;;;34.70;99.90;;;;;;4900377;29;20218;-91
2022/07/25 10:23:46;;;;;;;1077.13;980.20;;;34.60;99.90;;;;;;4887605;29;20580;-89
2022/07/25 10:26:18;;;;;;;1055.40;963.70;;;34.50;99.90;;;;;;4896038;29;20265;-88
2022/07/25 10:28:47;;;;;;;1072.70;983.80;;;34.50;99.90;;;;;;4902524;29;20535;-90
2022/07/25 10:31:23;;;;;;;1063.80;973.63;;;34.50;99.90;;;;;;4908600;29;20190;-90
2022/07/25 10:34:34;;;;;;;1059.70;967.60;;;34.40;99.90;;;;;;4953436;28;20185;-94
2022/07/25 10:37:11;;;;;;;1068.15;973.53;;;34.30;99.90;;;;;;4912780;29;20201;-88
2022/07/25 10:39:39;;;;;;;1063.47;969.20;;;34.20;99.90;;;;;;4924781;29;20207;-89
2022/07/25 10:42:13;;;;;;;1066.63;978.45;;;34.20;99.90;;;;;;4922169;29;20309;-90
2022/07/25 10:44:42;;;;;;;1078.70;987.03;;;34.10;99.90;;;;;;4942506;29;20197;-88
2022/07/25 10:47:11;;;;;;;1072.13;975.13;;;34.10;99.90;;;;;;4943061;29;20205;-86
2022/07/25 10:49:40;;;;;;;1068.72;980.42;;;34.00;99.90;;;;;;4928095;29;20201;-86
2022/07/25 10:52:22;;;;;;;1056.72;960.60;;;33.90;99.90;;;;;;4929070;29;20209;-93
2022/07/25 10:54:54;;;;;;;1064.97;968.42;;;33.90;99.90;;;;;;4948920;29;20613;-85
2022/07/25 10:57:29;;;;;;;1058.57;962.50;;;33.80;99.90;;;;;;4936531;29;20197;-87
2022/07/25 11:02:55;;;;;;;1051.38;956.05;;;33.80;99.90;;;;;;4930496;29;20277;-87
2022/07/25 11:05:22;;;;;;;1058.60;962.85;;;33.70;99.90;;;;;;4931626;29;20193;-87
2022/07/25 11:07:51;;;;;;;1069.70;973.90;;;33.70;99.90;;;;;;4921398;29;20208;-87
2022/07/25 11:10:26;;;;;;;1066.90;970.80;;;33.70;99.90;;;;;;4925617;29;20202;-89
2022/07/25 11:12:56;;;;;;;1062.72;967.88;;;33.60;99.90;;;;;;4918988;28;20192;-87
2022/07/25 11:15:27;;;;;;;1053.18;958.50;;;33.60;99.90;;;;;;4928014;29;20189;-89
2022/07/25 11:17:55;;;;;;;1070.78;974.67;;;33.60;99.90;;;;;;4929025;29;20248;-88
2022/07/25 11:20:22;;;;;;;1070.35;974.53;;;33.60;99.90;;;;;;4935152;29;20202;-90
2022/07/25 11:22:53;;;;;;;1058.25;962.05;;;33.60;99.90;;;;;;4939274;29;20224;-86
2022/07/25 11:25:23;;;;;;;1059.60;964.10;;;33.50;99.90;;;;;;4919092;29;20197;-90
2022/07/25 11:28:03;;;;;;;1065.45;969.40;;;33.60;99.90;;;;;;4928208;29;20197;-85
2022/07/25 11:30:31;;;;;;;1065.97;974.08;;;33.60;99.90;;;;;;4942268;29;20188;-86
2022/07/25 11:33:00;;;;;;;1074.35;982.63;;;33.60;99.90;;;;;;4945256;29;20232;-85
2022/07/25 11:35:28;;;;;;;;;;;33.70;99.90;;;;;;4941569;29;20221;-85
2022/07/25 11:37:55;;;;;;;;;;;33.70;99.90;;;;;;4922823;29;20242;-89
2022/07/25 11:40:22;;;;;;;;;;;33.60;99.90;;;;;;4921984;29;19922;-87
2022/07/25 11:42:51;;;;;;;;;;;33.60;99.90;;;;;;4937409;29;19922;-90
2022/07/25 11:45:28;;;;;;;1070.88;975.65;;;33.60;99.90;;;;;;4926689;29;20052;-87
2022/07/25 11:48:03;;;;;;;1052.40;956.45;;;33.60;99.90;;;;;;4936883;29;20218;-85
2022/07/25 11:50:35;;;;;;;1075.30;987.22;;;33.60;99.90;;;;;;4936634;29;20202;-88
2022/07/25 11:53:14;;;;;;;1069.97;979.63;;;33.70;99.90;;;;;;4928273;29;20229;-89
2022/07/25 11:55:50;;;;;;;1081.43;989.13;;;33.60;99.90;;;;;;4954499;29;20185;-88
2022/07/25 11:58:18;;;;;;;1061.63;967.38;;;33.60;99.90;;;;;;4943004;29;20201;-86
2022/07/25 12:00:48;;;;;;;1078.88;989.15;;;33.50;99.90;;;;;;4941636;29;20212;-86
2022/07/25 12:03:19;;;;;;;1067.22;980.88;;;33.50;99.90;;;;;;4943325;29;20244;-88
2022/07/25 12:05:46;;;;;;;1077.85;989.42;;;33.50;99.90;;;;;;4929214;29;20655;-87
2022/07/25 12:08:15;;;;;;;1082.18;992.45;;;33.60;99.90;;;;;;4935414;29;20575;-87
2022/07/25 12:10:50;;;;;;;1070.35;977.10;;;33.60;99.90;;;;;;4943986;29;20221;-89
2022/07/25 12:13:23;;;;;;;1071.00;976.95;;;33.80;99.90;;;;;;4940043;29;20205;-88
2022/07/25 12:15:51;;;;;;;1064.32;970.05;;;33.80;99.90;;;;;;4943610;29;20201;-88
2022/07/25 12:18:22;;;;;;;1063.28;973.60;;;33.70;99.90;;;;;;4937461;29;20548;-89
2022/07/25 12:20:49;;;;;;;1070.15;979.35;;;33.70;99.90;;;;;;4946835;29;20187;-88
2022/07/25 12:23:17;;;;;;;1071.80;981.17;;;33.80;99.90;;;;;;4924897;29;20232;-87
2022/07/25 12:25:47;;;;;;;1071.63;978.13;;;33.70;99.90;;;;;;4943333;29;20193;-92
2022/07/25 12:28:14;;;;;;;1070.93;975.63;;;33.70;99.90;;;;;;4937756;29;20201;-86
2022/07/25 12:30:43;;;;;;;1082.90;990.17;;;33.70;99.90;;;;;;4947370;29;20263;-85
2022/07/25 12:33:11;;;;;;;1068.35;971.97;;;33.60;99.90;;;;;;4940651;29;20248;-85
2022/07/25 12:35:40;;;;;;;1064.60;970.25;;;33.70;99.90;;;;;;4949551;29;20670;-88
2022/07/25 12:38:17;;;;;;;1080.28;991.35;;;33.80;99.90;;;;;;4938310;29;20209;-90
2022/07/25 12:40:44;;;;;;;1074.63;984.88;;;33.80;99.90;;;;;;4928763;29;20421;-86
2022/07/25 12:43:11;;;;;;;1072.05;981.90;;;33.80;99.90;;;;;;4934711;29;20272;-86
2022/07/25 12:45:39;;;;;;;1075.95;984.15;;;33.70;99.90;;;;;;4929089;29;20604;-86
2022/07/25 12:48:07;;;;;;;1066.72;973.58;;;33.70;99.90;;;;;;4931624;29;20204;-86
2022/07/25 12:50:36;;;;;;;1076.20;981.88;;;33.80;99.90;;;;;;4931840;29;20208;-87
2022/07/25 12:53:03;;;;;;;1062.20;968.35;;;33.70;99.90;;;;;;4934695;29;20197;-86
2022/07/25 12:55:31;;;;;;;1068.28;972.70;;;33.70;99.90;;;;;;4928889;29;20197;-86
2022/07/25 12:57:58;;;;;;;1074.72;978.78;;;33.70;99.90;;;;;;4934698;29;20638;-87
2022/07/25 13:00:25;;;;;;;1066.05;970.65;;;33.80;99.90;;;;;;4935138;29;20205;-87
2022/07/25 13:02:54;;;;;;;1078.05;986.35;;;33.70;99.90;;;;;;4934410;29;20787;-87
2022/07/25 13:05:22;;;;;;;1091.20;996.70;;;33.70;99.90;;;;;;4934480;29;20201;-87
2022/07/25 13:07:51;;;;;;;1086.18;992.58;;;33.70;99.90;;;;;;4929533;29;20651;-86
2022/07/25 13:10:19;;;;;;;1084.15;988.17;;;33.90;99.90;;;;;;4918292;29;20205;-87
2022/07/25 13:12:47;;;;;;;1076.20;981.95;;;33.90;99.90;;;;;;4926776;29;20197;-86